CDT,Max TemperatureF,Mean TemperatureF,Min TemperatureF,Max Dew PointF,MeanDew PointF,Min DewpointF,Max Humidity, Mean Humidity, Min Humidity, Max Sea Level PressureIn, Mean Sea Level PressureIn, Min Sea Level PressureIn, Max VisibilityMiles, Mean VisibilityMiles, Min VisibilityMiles, Max Wind SpeedMPH, Mean Wind SpeedMPH, Max Gust SpeedMPH,PrecipitationIn, CloudCover, Events, WindDirDegrees
2013-8-1,97,87,76,77,74,70,94,69,43,30.06,30.01,29.94,10,10,9,7,4,12,0.00,1,,241
2013-8-2,96,87,78,77,75,71,91,70,49,30.02,29.99,29.95,10,10,7,13,4,17,0.00,0,,228
2013-8-3,95,86,76,77,74,71,94,72,49,30.09,30.04,30.01,10,10,6,12,5,16,0.00,0,,205
2013-8-4,94,86,78,78,75,73,91,72,52,30.12,30.07,30.02,10,10,7,17,4,22,0.05,1,Rain-Thunderstorm,206
2013-8-5,96,87,77,78,75,66,91,65,38,30.08,30.03,29.98,10,10,10,15,6,20,0.00,0,,228
2013-8-6,96,88,79,77,75,71,91,69,46,30.03,29.98,29.94,10,10,10,15,7,23,0.00,1,,227
2013-8-7,96,87,77,78,75,70,91,67,42,30.01,29.95,29.91,10,10,9,14,7,20,0.00,1,,222
2013-8-8,96,86,75,77,74,70,94,70,46,29.98,29.94,29.91,10,9,4,12,4,17,0.00,1,,212
2013-8-9,98,88,77,77,75,71,91,68,45,30.02,29.95,29.90,10,10,7,17,5,22,0.00,1,Thunderstorm,122
2013-8-10,94,86,77,76,74,69,91,74,56,30.07,30.04,30.00,10,10,9,28,4,38,0.04,2,Rain-Thunderstorm,83
2013-8-11,93,85,76,77,74,71,94,75,56,30.11,30.07,30.03,10,9,2,23,7,26,0.07,2,Rain-Thunderstorm,138
2013-8-12,90,83,76,77,75,73,94,79,63,30.12,30.07,30.01,10,10,9,12,3,15,T,1,Thunderstorm,179
2013-8-13,98,88,77,79,75,70,94,67,39,30.07,30.01,29.94,10,10,9,16,6,22,0.00,1,,237
2013-8-14,92,84,75,77,75,72,94,77,59,30.01,29.97,29.94,10,9,0,25,5,32,1.88,4,Rain-Thunderstorm,199
2013-8-15,88,81,73,75,72,67,94,77,59,30.04,29.99,29.94,10,8,1,17,4,21,0.59,4,Rain,26
2013-8-16,94,84,73,73,68,62,94,65,36,30.02,29.98,29.94,10,10,9,13,6,17,0.00,0,,29
2013-8-17,94,83,71,70,64,59,79,56,32,30.01,29.98,29.93,10,10,10,16,8,23,0.00,1,,34
2013-8-18,94,83,72,73,69,63,93,66,38,30.04,30.00,29.98,10,10,6,17,6,21,0.00,1,,67
2013-8-19,93,82,71,72,68,62,93,66,38,30.07,30.02,29.97,10,10,9,14,6,18,0.00,0,,67
2013-8-20,85,80,74,74,73,71,94,82,69,30.10,30.04,29.99,10,10,9,12,5,17,0.21,3,Rain-Thunderstorm,47
2013-8-21,93,83,73,75,73,71,94,73,52,30.12,30.07,30.04,10,10,3,18,7,24,T,1,Rain-Thunderstorm,90
2013-8-22,95,85,75,75,73,70,94,70,46,30.10,30.04,29.96,10,10,9,20,5,25,0.00,1,Thunderstorm,102
2013-8-23,97,86,75,76,73,68,94,68,42,30.03,29.98,29.91,10,10,6,17,6,20,0.00,0,,70
2013-8-24,94,84,74,74,72,70,88,67,46,30.07,30.02,29.97,10,10,10,24,10,31,T,1,,69
2013-8-25,87,81,75,75,74,72,94,82,70,30.15,30.09,30.04,10,10,2,21,9,24,0.05,5,Rain-Thunderstorm,97
2013-8-26,84,79,74,75,73,72,94,90,85,30.18,30.14,30.08,10,8,0,20,7,23,0.82,6,Fog-Rain,118
2013-8-27,93,83,72,74,71,66,94,69,44,30.15,30.10,30.05,10,10,10,10,4,14,0.00,2,,103
2013-8-28,96,85,73,76,72,67,94,67,39,30.11,30.06,30.00,10,9,6,9,3,13,0.00,1,,90
2013-8-29,91,83,75,76,74,73,94,75,56,30.09,30.05,29.99,10,8,4,13,3,29,T,2,,186
2013-8-30,92,83,73,75,72,70,94,72,49,30.06,30.01,29.94,10,8,3,9,2,13,0.00,1,,200
2013-8-31,92,83,73,76,72,70,94,72,49,30.00,29.95,29.89,10,8,2,14,3,18,0.00,0,,205